
Distance (Route):
Temperature : -12.2°C
Humidity : 37.1%
Pressure : 0hPa| Receiver | Frames | First received | Last received |
|---|---|---|---|
| OM5KV | 112 | 2026-09-03 06:06:41 | 2026-09-03 06:20:19 |
| LZ4TU-5 | 94 | 2026-09-03 05:22:58 | 2026-09-03 06:55:05 |
| OE3JTB-15 | 30 | 2026-09-03 06:18:40 | 2026-09-03 06:34:27 |
| 9A1FER-3 | 28 | 2026-09-03 06:31:26 | 2026-09-03 06:41:58 |
| 9A1FER-10 | 8 | 2026-09-03 06:31:27 | 2026-09-03 06:37:09 |
| PETON7-10 | 2 | 2026-09-03 06:38:53 | 2026-09-03 06:41:47 |
| Receiver | Date | Latitude | Longitude | Direction | Speed | Altitude | Climb | Temperature | Humidity | Pressure | Voltage | Killtimer | Uptime | BKT | XDATA |
|---|---|---|---|---|---|---|---|---|---|---|---|---|---|---|---|
| LZ4TU-5 | 2026-09-03 06:55:05 | 44.54579 | 20.93798 | 117° | 35km/h | 5705m | -17.8m/s | -12.2°C | 37.1% | 0hPa | 5.3V | 00:00:00 | 00:00:00 | 00:00:00 | |
| LZ4TU-5 | 2026-09-03 06:55:00 | 44.54599 | 20.93745 | 120° | 35km/h | 5796m | -17.6m/s | -13.0°C | 36.5% | 0hPa | 5.3V | 00:00:00 | 00:00:00 | 00:00:00 | |
| LZ4TU-5 | 2026-09-03 06:51:34 | 44.55549 | 20.91224 | 124° | 47km/h | 9554m | -18.9m/s | -43.3°C | 60.4% | 0hPa | 5.3V | 00:00:00 | 00:00:00 | 00:00:00 | |
| LZ4TU-5 | 2026-09-03 06:51:30 | 44.55582 | 20.91152 | 124° | 49km/h | 9656m | -19.8m/s | -44.3°C | 56.3% | 0hPa | 5.3V | 00:00:00 | 00:00:00 | 00:00:00 | |
| LZ4TU-5 | 2026-09-03 06:48:59 | 44.57338 | 20.88419 | 125° | 77km/h | 12862m | -23.4m/s | -50.4°C | 2.0% | 0hPa | 5.3V | 00:00:00 | 00:00:00 | 00:00:00 | |
| LZ4TU-5 | 2026-09-03 06:47:00 | 44.57897 | 20.86069 | 113° | 62km/h | 16168m | -28.2m/s | -55.9°C | 0.0% | 0hPa | 5.3V | 00:00:00 | 00:00:00 | 00:00:00 | |
| LZ4TU-5 | 2026-09-03 06:46:56 | 44.57921 | 20.85993 | 122° | 55km/h | 16283m | -28.2m/s | -55.2°C | 0.0% | 0hPa | 5.3V | 00:00:00 | 00:00:00 | 00:00:00 | |
| LZ4TU-5 | 2026-09-03 06:46:49 | 44.57964 | 20.85899 | 118° | 35km/h | 16484m | -28.4m/s | -55.8°C | 0.0% | 0hPa | 5.3V | 00:00:00 | 00:00:00 | 00:00:00 | |
| LZ4TU-5 | 2026-09-03 06:46:42 | 44.57978 | 20.85815 | 90° | 40km/h | 16679m | -28.2m/s | -55.8°C | 0.0% | 0hPa | 5.3V | 00:00:00 | 00:00:00 | 00:00:00 | |
| LZ4TU-5 | 2026-09-03 06:46:32 | 44.57980 | 20.85686 | 95° | 27km/h | 16978m | -29.8m/s | -55.1°C | 0.0% | 0hPa | 5.3V | 00:00:00 | 00:00:00 | 00:00:00 | |
| LZ4TU-5 | 2026-09-03 06:46:16 | 44.57971 | 20.85494 | 94° | 35km/h | 17477m | -34.3m/s | -55.4°C | 0.0% | 0hPa | 5.3V | 00:00:00 | 00:00:00 | 00:00:00 | |
| LZ4TU-5 | 2026-09-03 06:46:11 | 44.57972 | 20.85430 | 92° | 37km/h | 17642m | -35.6m/s | -55.1°C | 0.0% | 0hPa | 5.3V | 00:00:00 | 00:00:00 | 00:00:00 | |
| LZ4TU-5 | 2026-09-03 06:45:51 | 44.58019 | 20.85147 | 123° | 33km/h | 18397m | -38.0m/s | -55.2°C | 0.0% | 0hPa | 5.3V | 00:00:00 | 00:00:00 | 00:00:00 | |
| LZ4TU-5 | 2026-09-03 06:45:47 | 44.58034 | 20.85111 | 113° | 22km/h | 18549m | -36.6m/s | -55.3°C | 0.0% | 0hPa | 5.3V | 00:00:00 | 00:00:00 | 00:00:00 | |
| LZ4TU-5 | 2026-09-03 06:45:42 | 44.58042 | 20.85071 | 97° | 26km/h | 18732m | -37.3m/s | -55.8°C | 0.0% | 0hPa | 5.3V | 00:00:00 | 00:00:00 | 00:00:00 | |
| LZ4TU-5 | 2026-09-03 06:45:35 | 44.58056 | 20.85002 | 119° | 31km/h | 18991m | -43.1m/s | -56.1°C | 0.0% | 0hPa | 5.3V | 00:00:00 | 00:00:00 | 00:00:00 | |
| LZ4TU-5 | 2026-09-03 06:45:29 | 44.58076 | 20.84959 | 126° | 20km/h | 19249m | -41.2m/s | -54.6°C | 0.0% | 0hPa | 5.3V | 00:00:00 | 00:00:00 | 00:00:00 | |
| LZ4TU-5 | 2026-09-03 06:42:35 | 44.58216 | 20.84999 | 6° | 13km/h | 28107m | -71.4m/s | -44.1°C | 1.5% | 0hPa | 5.3V | 00:00:00 | 00:00:00 | 00:00:00 | |
| LZ4TU-5 | 2026-09-03 06:42:31 | 44.58203 | 20.84997 | 1° | 13km/h | 28386m | -68.6m/s | -43.4°C | 1.6% | 0hPa | 5.3V | 00:00:00 | 00:00:00 | 00:00:00 | |
| LZ4TU-5 | 2026-09-03 06:42:26 | 44.58187 | 20.84995 | 18° | 13km/h | 28725m | -67.9m/s | -43.7°C | 1.9% | 0hPa | 5.3V | 00:00:00 | 00:00:00 | 00:00:00 | |
| 9A1FER-3 | 2026-09-03 06:41:58 | 44.58149 | 20.84945 | 92° | 20km/h | 30707m | -50.1m/s | -40.7°C | 0% | 0hPa | 5.3V | 00:00:00 | 00:00:00 | 00:00:00 | |
| PETON7-10 | 2026-09-03 06:41:47 | 44.58193 | 20.84886 | 252° | 16km/h | 30796m | 5.3m/s | -40.7°C | 0% | 0hPa | 5.3V | 00:00:00 | 00:00:00 | 00:00:00 | |
| 9A1FER-3 | 2026-09-03 06:41:43 | 44.58194 | 20.84888 | 104° | 16km/h | 30774m | 8.3m/s | -40.8°C | 0% | 0hPa | 5.3V | 00:00:00 | 00:00:00 | 00:00:00 | |
| LZ4TU-5 | 2026-09-03 06:41:39 | 44.58209 | 20.84863 | 160° | 24km/h | 30743m | 8.7m/s | -40.7°C | 2.1% | 0hPa | 5.3V | 00:00:00 | 00:00:00 | 00:00:00 | |
| LZ4TU-5 | 2026-09-03 06:41:35 | 44.58217 | 20.84869 | 16° | 9km/h | 30712m | 8.1m/s | -40.9°C | 2.2% | 0hPa | 5.3V | 00:00:00 | 00:00:00 | 00:00:00 | |
| 9A1FER-3 | 2026-09-03 06:41:24 | 44.58203 | 20.84808 | 30° | 16km/h | 30627m | 9.1m/s | -41.0°C | 0% | 0hPa | 5.3V | 00:00:00 | 00:00:00 | 00:00:00 | |
| LZ4TU-5 | 2026-09-03 06:40:20 | 44.57932 | 20.84829 | 261° | 29km/h | 30159m | 4.6m/s | -41.7°C | 2.0% | 0hPa | 5.3V | 00:00:00 | 00:00:00 | 00:00:00 | |
| 9A1FER-3 | 2026-09-03 06:40:17 | 44.57927 | 20.84849 | 342° | 18km/h | 30135m | 7.3m/s | -41.5°C | 0% | 0hPa | 5.3V | 00:00:00 | 00:00:00 | 00:00:00 | |
| LZ4TU-5 | 2026-09-03 06:40:16 | 44.57922 | 20.84851 | 1° | 22km/h | 30127m | 7.4m/s | -42.0°C | 2.0% | 0hPa | 5.3V | 00:00:00 | 00:00:00 | 00:00:00 | |
| 9A1FER-3 | 2026-09-03 06:40:01 | 44.57927 | 20.84890 | 109° | 15km/h | 30021m | 6.8m/s | -42.2°C | 0% | 0hPa | 5.3V | 00:00:00 | 00:00:00 | 00:00:00 | |
| 9A1FER-3 | 2026-09-03 06:39:44 | 44.57959 | 20.84869 | 171° | 13km/h | 29903m | 6.1m/s | -42.1°C | 0% | 0hPa | 5.3V | 00:00:00 | 00:00:00 | 00:00:00 | |
| LZ4TU-5 | 2026-09-03 06:39:26 | 44.57948 | 20.84820 | 356° | 26km/h | 29783m | 6.8m/s | -43.1°C | 2.0% | 0hPa | 5.3V | 00:00:00 | 00:00:00 | 00:00:00 | |
| LZ4TU-5 | 2026-09-03 06:39:22 | 44.57945 | 20.84812 | 134° | 16km/h | 29755m | 8.0m/s | -42.9°C | 1.9% | 0hPa | 5.3V | 00:00:00 | 00:00:00 | 00:00:00 | |
| PETON7-10 | 2026-09-03 06:38:53 | 44.57916 | 20.84801 | 348° | 18km/h | 29556m | 8.8m/s | -43.4°C | 0% | 0hPa | 5.3V | 00:00:00 | 00:00:00 | 00:00:00 | |
| 9A1FER-3 | 2026-09-03 06:37:24 | 44.57692 | 20.84719 | 34° | 18km/h | 28918m | 5.6m/s | -43.6°C | 0% | 0hPa | 5.3V | 00:00:00 | 00:00:00 | 00:00:00 | |
| 9A1FER-10 | 2026-09-03 06:37:09 | 44.57634 | 20.84721 | 290° | 18km/h | 28807m | 7.7m/s | -43.5°C | 0% | 0hPa | 5.4V | 00:00:00 | 00:00:00 | 00:00:00 | |
| LZ4TU-5 | 2026-09-03 06:37:03 | 44.57611 | 20.84738 | 37° | 18km/h | 28762m | 7.4m/s | -44.0°C | 2.0% | 0hPa | 5.4V | 00:00:00 | 00:00:00 | 00:00:00 | |
| LZ4TU-5 | 2026-09-03 06:36:58 | 44.57587 | 20.84722 | 360° | 16km/h | 28726m | 8.1m/s | -44.0°C | 1.9% | 0hPa | 5.4V | 00:00:00 | 00:00:00 | 00:00:00 | |
| 9A1FER-10 | 2026-09-03 06:36:54 | 44.57581 | 20.84731 | 299° | 11km/h | 28699m | 4.0m/s | -43.7°C | 0% | 0hPa | 5.4V | 00:00:00 | 00:00:00 | 00:00:00 | |
| 9A1FER-3 | 2026-09-03 06:36:51 | 44.57570 | 20.84745 | 337° | 15km/h | 28675m | 7.6m/s | -43.7°C | 0% | 0hPa | 5.4V | 00:00:00 | 00:00:00 | 00:00:00 | |
| 9A1FER-3 | 2026-09-03 06:36:34 | 44.57505 | 20.84771 | 256° | 11km/h | 28545m | 6.8m/s | -43.8°C | 0% | 0hPa | 5.4V | 00:00:00 | 00:00:00 | 00:00:00 | |
| 9A1FER-3 | 2026-09-03 06:36:16 | 44.57484 | 20.84759 | 15° | 15km/h | 28415m | 5.4m/s | -43.7°C | 0% | 0hPa | 5.4V | 00:00:00 | 00:00:00 | 00:00:00 | |
| 9A1FER-10 | 2026-09-03 06:36:11 | 44.57463 | 20.84784 | 338° | 26km/h | 28381m | 8.3m/s | -44.0°C | 0% | 0hPa | 5.4V | 00:00:00 | 00:00:00 | 00:00:00 | |
| 9A1FER-3 | 2026-09-03 06:35:57 | 44.57398 | 20.84784 | 41° | 16km/h | 28280m | 6.7m/s | -44.6°C | 0% | 0hPa | 5.4V | 00:00:00 | 00:00:00 | 00:00:00 | |
| 9A1FER-10 | 2026-09-03 06:35:55 | 44.57390 | 20.84769 | 76° | 22km/h | 28266m | 6.7m/s | -44.5°C | 0% | 0hPa | 5.4V | 00:00:00 | 00:00:00 | 00:00:00 | |
| 9A1FER-3 | 2026-09-03 06:35:40 | 44.57361 | 20.84753 | 271° | 11km/h | 28162m | 8.6m/s | -44.7°C | 0% | 0hPa | 5.4V | 00:00:00 | 00:00:00 | 00:00:00 | |
| 9A1FER-3 | 2026-09-03 06:35:24 | 44.57325 | 20.84727 | 57° | 16km/h | 28044m | 6.8m/s | -44.8°C | 0% | 0hPa | 5.4V | 00:00:00 | 00:00:00 | 00:00:00 | |
| 9A1FER-3 | 2026-09-03 06:35:08 | 44.57303 | 20.84680 | 213° | 16km/h | 27929m | 5.6m/s | -44.9°C | 0% | 0hPa | 5.4V | 00:00:00 | 00:00:00 | 00:00:00 | |
| 9A1FER-3 | 2026-09-03 06:34:54 | 44.57266 | 20.84685 | 16° | 13km/h | 27829m | 5.9m/s | -45.1°C | 0% | 0hPa | 5.4V | 00:00:00 | 00:00:00 | 00:00:00 | |
| 9A1FER-10 | 2026-09-03 06:34:53 | 44.57266 | 20.84685 | 16° | 15km/h | 27829m | 5.9m/s | -45.1°C | 0% | 0hPa | 5.4V | 00:00:00 | 00:00:00 | 00:00:00 | |
| 9A1FER-10 | 2026-09-03 06:34:38 | 44.57230 | 20.84669 | 28° | 13km/h | 27721m | 6.8m/s | -45.4°C | 0% | 0hPa | 5.4V | 00:00:00 | 00:00:00 | 00:00:00 | |
| 9A1FER-3 | 2026-09-03 06:34:37 | 44.57229 | 20.84668 | 71° | 15km/h | 27715m | 5.3m/s | -45.5°C | 0% | 0hPa | 5.4V | 00:00:00 | 00:00:00 | 00:00:00 | |
| OE3JTB-15 | 2026-09-03 06:34:27 | 44.57218 | 20.84627 | 16° | 16km/h | 27651m | 5.2m/s | -45.4°C | 0% | 0hPa | 5.4V | 00:00:00 | 00:00:00 | 00:00:00 | |
| 9A1FER-3 | 2026-09-03 06:34:21 | 44.57201 | 20.84606 | 38° | 9km/h | 27611m | 5.8m/s | -45.2°C | 0% | 0hPa | 5.4V | 00:00:00 | 00:00:00 | 00:00:00 | |
| 9A1FER-3 | 2026-09-03 06:34:06 | 44.57164 | 20.84584 | 346° | 22km/h | 27523m | 7.4m/s | -45.2°C | 0% | 0hPa | 5.4V | 00:00:00 | 00:00:00 | 00:00:00 | |
| OE3JTB-15 | 2026-09-03 06:33:56 | 44.57122 | 20.84573 | 300° | 16km/h | 27466m | 9.2m/s | -45.4°C | 0% | 0hPa | 5.4V | 00:00:00 | 00:00:00 | 00:00:00 | |
| 9A1FER-3 | 2026-09-03 06:33:50 | 44.57105 | 20.84588 | 45° | 13km/h | 27427m | 6.6m/s | -45.5°C | 0% | 0hPa | 5.4V | 00:00:00 | 00:00:00 | 00:00:00 | |
| 9A1FER-3 | 2026-09-03 06:33:35 | 44.57069 | 20.84603 | 322° | 20km/h | 27330m | 5.6m/s | -46.0°C | 0% | 0hPa | 5.4V | 00:00:00 | 00:00:00 | 00:00:00 | |
| OE3JTB-15 | 2026-09-03 06:33:27 | 44.57043 | 20.84638 | 334° | 16km/h | 27278m | 7.2m/s | -46.2°C | 0% | 0hPa | 5.4V | 00:00:00 | 00:00:00 | 00:00:00 | |
| 9A1FER-3 | 2026-09-03 06:33:17 | 44.57018 | 20.84678 | 268° | 18km/h | 27217m | 3.5m/s | -46.3°C | 0% | 0hPa | 5.4V | 00:00:00 | 00:00:00 | 00:00:00 | |
| 9A1FER-3 | 2026-09-03 06:33:02 | 44.56995 | 20.84758 | 323° | 16km/h | 27133m | 2.7m/s | -46.3°C | 0% | 0hPa | 5.4V | 00:00:00 | 00:00:00 | 00:00:00 | |
| OE3JTB-15 | 2026-09-03 06:32:58 | 44.56989 | 20.84786 | 267° | 24km/h | 27109m | 5.5m/s | -46.6°C | 0% | 0hPa | 5.4V | 00:00:00 | 00:00:00 | 00:00:00 | |
| 9A1FER-3 | 2026-09-03 06:32:45 | 44.56982 | 20.84890 | 264° | 24km/h | 27024m | 5.6m/s | -47.0°C | 0% | 0hPa | 5.4V | 00:00:00 | 00:00:00 | 00:00:00 | |
| 9A1FER-3 | 2026-09-03 06:32:29 | 44.57005 | 20.84996 | 202° | 15km/h | 26919m | 7.6m/s | -47.0°C | 0% | 0hPa | 5.4V | 00:00:00 | 00:00:00 | 00:00:00 | |
| OE3JTB-15 | 2026-09-03 06:32:27 | 44.57012 | 20.84996 | 181° | 15km/h | 26905m | 6.3m/s | -47.0°C | 0% | 0hPa | 5.4V | 00:00:00 | 00:00:00 | 00:00:00 | |
| 9A1FER-3 | 2026-09-03 06:32:14 | 44.57047 | 20.85038 | 208° | 16km/h | 26821m | 4.9m/s | -47.5°C | 0% | 0hPa | 5.4V | 00:00:00 | 00:00:00 | 00:00:00 | |
| 9A1FER-3 | 2026-09-03 06:31:59 | 44.57080 | 20.85102 | 253° | 16km/h | 26719m | 3.9m/s | -47.3°C | 0% | 0hPa | 5.4V | 00:00:00 | 00:00:00 | 00:00:00 | |
| OE3JTB-15 | 2026-09-03 06:31:57 | 44.57080 | 20.85112 | 309° | 20km/h | 26709m | 6.6m/s | -47.4°C | 0% | 0hPa | 5.4V | 00:00:00 | 00:00:00 | 00:00:00 | |
| 9A1FER-10 | 2026-09-03 06:31:44 | 44.57086 | 20.85188 | 301° | 31km/h | 26626m | 7.3m/s | -47.8°C | 0% | 0hPa | 5.4V | 00:00:00 | 00:00:00 | 00:00:00 | |
| 9A1FER-3 | 2026-09-03 06:31:42 | 44.57089 | 20.85212 | 245° | 35km/h | 26606m | 7.1m/s | -48.0°C | 0% | 0hPa | 5.4V | 00:00:00 | 00:00:00 | 00:00:00 | |
| OE3JTB-15 | 2026-09-03 06:31:28 | 44.57121 | 20.85308 | 241° | 26km/h | 26518m | 6.2m/s | -48.3°C | 0% | 0hPa | 5.4V | 00:00:00 | 00:00:00 | 00:00:00 | |
| 9A1FER-10 | 2026-09-03 06:31:27 | 44.57125 | 20.85319 | 245° | 27km/h | 26512m | 6.4m/s | -48.4°C | 0% | 0hPa | 5.4V | 00:00:00 | 00:00:00 | 00:00:00 | |
| 9A1FER-3 | 2026-09-03 06:31:26 | 44.57128 | 20.85330 | 251° | 29km/h | 26506m | 4.5m/s | -48.4°C | 0% | 0hPa | 5.4V | 00:00:00 | 00:00:00 | 00:00:00 | |
| OE3JTB-15 | 2026-09-03 06:30:52 | 44.57240 | 20.85529 | 197° | 26km/h | 26277m | 7.1m/s | -48.2°C | 0% | 0hPa | 5.4V | 00:00:00 | 00:00:00 | 00:00:00 | |
| OE3JTB-15 | 2026-09-03 06:30:18 | 44.57415 | 20.85648 | 198° | 15km/h | 26048m | 5.7m/s | -48.0°C | 0% | 0hPa | 5.4V | 00:00:00 | 00:00:00 | 00:00:00 | |
| OE3JTB-15 | 2026-09-03 06:29:45 | 44.57465 | 20.85631 | 131° | 18km/h | 25830m | 4.5m/s | -48.5°C | 0% | 0hPa | 5.4V | 00:00:00 | 00:00:00 | 00:00:00 | |
| OE3JTB-15 | 2026-09-03 06:29:16 | 44.57493 | 20.85746 | 241° | 29km/h | 25638m | 6.7m/s | -48.3°C | 0% | 0hPa | 5.4V | 00:00:00 | 00:00:00 | 00:00:00 | |
| OE3JTB-15 | 2026-09-03 06:28:33 | 44.57679 | 20.86009 | 197° | 20km/h | 25349m | 8.3m/s | -48.5°C | 0% | 0hPa | 5.4V | 00:00:00 | 00:00:00 | 00:00:00 | |
| OE3JTB-15 | 2026-09-03 06:28:02 | 44.57810 | 20.85935 | 120° | 11km/h | 25138m | 8.1m/s | -48.2°C | 0% | 0hPa | 5.4V | 00:00:00 | 00:00:00 | 00:00:00 | |
| OE3JTB-15 | 2026-09-03 06:27:33 | 44.57807 | 20.85836 | 183° | 9km/h | 24938m | 7.6m/s | -48.6°C | 0% | 0hPa | 5.4V | 00:00:00 | 00:00:00 | 00:00:00 | |
| OE3JTB-15 | 2026-09-03 06:27:03 | 44.57780 | 20.85814 | 302° | 9km/h | 24745m | 6.4m/s | -50.0°C | 0% | 0hPa | 5.4V | 00:00:00 | 00:00:00 | 00:00:00 | |
| LZ4TU-5 | 2026-09-03 06:26:51 | 44.57779 | 20.85819 | 309° | 13km/h | 24666m | 5.7m/s | -51.0°C | 1.4% | 0hPa | 5.4V | 00:00:00 | 00:00:00 | 00:00:00 | |
| LZ4TU-5 | 2026-09-03 06:26:46 | 44.57786 | 20.85823 | 165° | 11km/h | 24635m | 5.8m/s | -50.9°C | 1.3% | 0hPa | 5.4V | 00:00:00 | 00:00:00 | 00:00:00 | |
| OE3JTB-15 | 2026-09-03 06:26:34 | 44.57791 | 20.85788 | 112° | 13km/h | 24555m | 7.9m/s | -50.3°C | 0% | 0hPa | 5.4V | 00:00:00 | 00:00:00 | 00:00:00 | |
| OE3JTB-15 | 2026-09-03 06:26:04 | 44.57753 | 20.85723 | 331° | 15km/h | 24369m | 6.3m/s | -51.1°C | 0% | 0hPa | 5.4V | 00:00:00 | 00:00:00 | 00:00:00 | |
| OE3JTB-15 | 2026-09-03 06:25:35 | 44.57672 | 20.85760 | 333° | 13km/h | 24186m | 6.8m/s | -51.6°C | 0% | 0hPa | 5.4V | 00:00:00 | 00:00:00 | 00:00:00 | |
| OE3JTB-15 | 2026-09-03 06:25:06 | 44.57659 | 20.85842 | 317° | 13km/h | 24007m | 6.5m/s | -52.2°C | 0% | 0hPa | 5.5V | 00:00:00 | 00:00:00 | 00:00:00 | |
| OE3JTB-15 | 2026-09-03 06:24:37 | 44.57647 | 20.85945 | 252° | 20km/h | 23819m | 4.5m/s | -52.3°C | 0% | 0hPa | 5.5V | 00:00:00 | 00:00:00 | 00:00:00 | |
| LZ4TU-5 | 2026-09-03 06:24:27 | 44.57675 | 20.86012 | 235° | 27km/h | 23759m | 5.9m/s | -53.0°C | 1.4% | 0hPa | 5.5V | 00:00:00 | 00:00:00 | 00:00:00 | |
| LZ4TU-5 | 2026-09-03 06:24:23 | 44.57688 | 20.86037 | 229° | 11km/h | 23735m | 6.3m/s | -52.9°C | 1.3% | 0hPa | 5.5V | 00:00:00 | 00:00:00 | 00:00:00 | |
| OE3JTB-15 | 2026-09-03 06:24:04 | 44.57741 | 20.86128 | 278° | 11km/h | 23618m | 6.1m/s | -52.5°C | 0% | 0hPa | 5.5V | 00:00:00 | 00:00:00 | 00:00:00 | |
| OE3JTB-15 | 2026-09-03 06:23:35 | 44.57777 | 20.86189 | 228° | 20km/h | 23439m | 7.5m/s | -52.5°C | 0% | 0hPa | 5.5V | 00:00:00 | 00:00:00 | 00:00:00 | |
| OE3JTB-15 | 2026-09-03 06:23:05 | 44.57873 | 20.86331 | 216° | 27km/h | 23258m | 5.9m/s | -52.9°C | 0% | 0hPa | 5.5V | 00:00:00 | 00:00:00 | 00:00:00 | |
| OE3JTB-15 | 2026-09-03 06:22:36 | 44.58026 | 20.86491 | 206° | 27km/h | 23069m | 7.4m/s | -52.1°C | 0% | 0hPa | 5.5V | 00:00:00 | 00:00:00 | 00:00:00 | |
| OE3JTB-15 | 2026-09-03 06:22:07 | 44.58207 | 20.86612 | 205° | 15km/h | 22878m | 5.7m/s | -52.0°C | 0% | 0hPa | 5.5V | 00:00:00 | 00:00:00 | 00:00:00 | |
| OE3JTB-15 | 2026-09-03 06:21:32 | 44.58334 | 20.86602 | 155° | 26km/h | 22666m | 5.2m/s | -51.6°C | 0% | 0hPa | 5.5V | 00:00:00 | 00:00:00 | 00:00:00 | |
| OM5KV | 2026-09-03 06:20:19 | 44.58540 | 20.86582 | 168° | 20km/h | 22246m | 6.4m/s | -53.4°C | 1.0% | 0hPa | 5.5V | 00:00:00 | 00:00:00 | 00:00:00 | |
| OM5KV | 2026-09-03 06:20:13 | 44.58590 | 20.86586 | 172° | 35km/h | 22207m | 7.1m/s | -53.7°C | 1.0% | 0hPa | 5.5V | 00:00:00 | 00:00:00 | 00:00:00 | |
| OE3JTB-15 | 2026-09-03 06:20:08 | 44.58625 | 20.86562 | 144° | 31km/h | 22178m | 6.3m/s | -53.1°C | 0% | 0hPa | 5.5V | 00:00:00 | 00:00:00 | 00:00:00 | |
| LZ4TU-5 | 2026-09-03 06:20:05 | 44.58643 | 20.86552 | 176° | 24km/h | 22162m | 3.6m/s | -54.0°C | 1.1% | 0hPa | 5.5V | 00:00:00 | 00:00:00 | 00:00:00 | |
| OM5KV | 2026-09-03 06:20:01 | 44.58679 | 20.86539 | 157° | 46km/h | 22143m | 5.2m/s | -54.1°C | 1.1% | 0hPa | 5.5V | 00:00:00 | 00:00:00 | 00:00:00 | |
| LZ4TU-5 | 2026-09-03 06:20:00 | 44.58689 | 20.86533 | 155° | 40km/h | 22138m | 5.1m/s | -54.1°C | 1.1% | 0hPa | 5.5V | 00:00:00 | 00:00:00 | 00:00:00 | |
| OE3JTB-15 | 2026-09-03 06:19:39 | 44.58823 | 20.86384 | 135° | 18km/h | 22016m | 6.4m/s | -54.0°C | 0% | 0hPa | 5.5V | 00:00:00 | 00:00:00 | 00:00:00 | |
| OE3JTB-15 | 2026-09-03 06:19:10 | 44.58845 | 20.86199 | 50° | 16km/h | 21843m | 7.7m/s | -54.5°C | 0% | 0hPa | 5.5V | 00:00:00 | 00:00:00 | 00:00:00 | |
| OE3JTB-15 | 2026-09-03 06:18:40 | 44.58746 | 20.86149 | 359° | 15km/h | 21659m | 5.5m/s | -54.1°C | 0% | 0hPa | 5.5V | 00:00:00 | 00:00:00 | 00:00:00 | |
| OM5KV | 2026-09-03 06:18:20 | 44.58680 | 20.86153 | 331° | 16km/h | 21527m | 6.4m/s | -54.5°C | 1.1% | 0hPa | 0V | 00:00:00 | 00:00:00 | 00:00:00 | |
| LZ4TU-5 | 2026-09-03 06:18:03 | 44.58657 | 20.86181 | 75° | 15km/h | 21419m | 5.5m/s | -54.8°C | 1.1% | 0hPa | 0V | 00:00:00 | 00:00:00 | 00:00:00 | |
| OM5KV | 2026-09-03 06:18:00 | 44.58651 | 20.86166 | 47° | 15km/h | 21404m | 3.5m/s | -54.7°C | 1.1% | 0hPa | 0V | 00:00:00 | 00:00:00 | 00:00:00 | |
| LZ4TU-5 | 2026-09-03 06:17:58 | 44.58647 | 20.86162 | 30° | 4km/h | 21394m | 4.8m/s | -54.7°C | 1.1% | 0hPa | 0V | 00:00:00 | 00:00:00 | 00:00:00 | |
| OM5KV | 2026-09-03 06:17:39 | 44.58623 | 20.86071 | 73° | 47km/h | 21267m | 4.7m/s | -54.8°C | 1.2% | 0hPa | 0V | 00:00:00 | 00:00:00 | 00:00:00 | |
| OM5KV | 2026-09-03 06:17:34 | 44.58609 | 20.86017 | 43° | 18km/h | 21236m | 6.4m/s | -54.6°C | 1.2% | 0hPa | 0V | 00:00:00 | 00:00:00 | 00:00:00 | |
| OM5KV | 2026-09-03 06:17:28 | 44.58593 | 20.85983 | 65° | 33km/h | 21196m | 7.0m/s | -54.4°C | 1.1% | 0hPa | 0V | 00:00:00 | 00:00:00 | 00:00:00 | |
| OM5KV | 2026-09-03 06:17:22 | 44.58579 | 20.85942 | 48° | 5km/h | 21160m | 6.4m/s | -54.3°C | 1.0% | 0hPa | 0V | 00:00:00 | 00:00:00 | 00:00:00 | |
| OM5KV | 2026-09-03 06:17:15 | 44.58555 | 20.85912 | 57° | 35km/h | 21119m | 3.9m/s | -54.2°C | 1.0% | 0hPa | 0V | 00:00:00 | 00:00:00 | 00:00:00 | |
| OM5KV | 2026-09-03 06:17:09 | 44.58558 | 20.85890 | 227° | 7km/h | 21085m | 6.2m/s | -54.5°C | 1.1% | 0hPa | 0V | 00:00:00 | 00:00:00 | 00:00:00 | |
| OM5KV | 2026-09-03 06:16:52 | 44.58536 | 20.85874 | 30° | 16km/h | 20994m | 7.0m/s | -54.7°C | 1.2% | 0hPa | 0V | 00:00:00 | 00:00:00 | 00:00:00 | |
| OM5KV | 2026-09-03 06:16:44 | 44.58535 | 20.85882 | 103° | 5km/h | 20945m | 5.9m/s | -54.7°C | 1.2% | 0hPa | 0V | 00:00:00 | 00:00:00 | 00:00:00 | |
| OM5KV | 2026-09-03 06:16:33 | 44.58521 | 20.85874 | 3° | 4km/h | 20876m | 5.6m/s | -54.9°C | 1.3% | 0hPa | 0V | 00:00:00 | 00:00:00 | 00:00:00 | |
| OM5KV | 2026-09-03 06:16:26 | 44.58504 | 20.85855 | 304° | 4km/h | 20834m | 7.6m/s | -54.9°C | 1.3% | 0hPa | 0V | 00:00:00 | 00:00:00 | 00:00:00 | |
| OM5KV | 2026-09-03 06:16:19 | 44.58490 | 20.85867 | 46° | 15km/h | 20791m | 6.9m/s | -54.8°C | 1.3% | 0hPa | 0V | 00:00:00 | 00:00:00 | 00:00:00 | |
| LZ4TU-5 | 2026-09-03 06:16:14 | 44.58488 | 20.85863 | 311° | 4km/h | 20760m | 6.1m/s | -54.8°C | 1.3% | 0hPa | 0V | 00:00:00 | 00:00:00 | 00:00:00 | |
| OM5KV | 2026-09-03 06:16:12 | 44.58484 | 20.85867 | 322° | 13km/h | 20747m | 6.8m/s | -54.8°C | 1.3% | 0hPa | 0V | 00:00:00 | 00:00:00 | 00:00:00 | |
| OM5KV | 2026-09-03 06:16:06 | 44.58468 | 20.85875 | 337° | 13km/h | 20709m | 5.1m/s | -55.1°C | 1.3% | 0hPa | 0V | 00:00:00 | 00:00:00 | 00:00:00 | |
| OM5KV | 2026-09-03 06:15:52 | 44.58445 | 20.85908 | 272° | 9km/h | 20619m | 6.9m/s | -54.8°C | 1.1% | 0hPa | 0V | 00:00:00 | 00:00:00 | 00:00:00 | |
| OM5KV | 2026-09-03 06:15:46 | 44.58449 | 20.85923 | 291° | 5km/h | 20585m | 6.7m/s | -54.8°C | 1.1% | 0hPa | 0V | 00:00:00 | 00:00:00 | 00:00:00 | |
| OM5KV | 2026-09-03 06:15:40 | 44.58443 | 20.85921 | 0° | 0km/h | 20548m | 6.2m/s | -54.7°C | 1.0% | 0hPa | 0V | 00:00:00 | 00:00:00 | 00:00:00 | |
| OM5KV | 2026-09-03 06:15:28 | 44.58441 | 20.85903 | 109° | 5km/h | 20480m | 5.3m/s | -54.9°C | 1.0% | 0hPa | 0V | 00:00:00 | 00:00:00 | 00:00:00 | |
| OM5KV | 2026-09-03 06:15:17 | 44.58459 | 20.85886 | 126° | 15km/h | 20418m | 5.6m/s | -54.7°C | 0.8% | 0hPa | 0V | 00:00:00 | 00:00:00 | 00:00:00 | |
| OM5KV | 2026-09-03 06:15:10 | 44.58473 | 20.85863 | 91° | 9km/h | 20380m | 5.1m/s | -55.1°C | 0.9% | 0hPa | 0V | 00:00:00 | 00:00:00 | 00:00:00 | |
| LZ4TU-5 | 2026-09-03 06:14:39 | 44.58450 | 20.85686 | 46° | 27km/h | 20210m | 6.0m/s | -56.6°C | 1.3% | 0hPa | 0V | 00:00:00 | 00:00:00 | 00:00:00 | |
| LZ4TU-5 | 2026-09-03 06:14:34 | 44.58440 | 20.85664 | 73° | 7km/h | 20180m | 5.3m/s | -56.4°C | 1.3% | 0hPa | 0V | 00:00:00 | 00:00:00 | 00:00:00 | |
| OM5KV | 2026-09-03 06:14:09 | 44.58403 | 20.85677 | 252° | 11km/h | 20042m | 4.2m/s | -55.9°C | 1.3% | 0hPa | 0V | 00:00:00 | 00:00:00 | 00:00:00 | |
| OM5KV | 2026-09-03 06:14:03 | 44.58386 | 20.85698 | 296° | 9km/h | 20002m | 6.8m/s | -55.8°C | 1.3% | 0hPa | 0V | 00:00:00 | 00:00:00 | 00:00:00 | |
| OM5KV | 2026-09-03 06:13:57 | 44.58392 | 20.85723 | 199° | 7km/h | 19972m | 6.0m/s | -55.6°C | 1.3% | 0hPa | 0V | 00:00:00 | 00:00:00 | 00:00:00 | |
| OM5KV | 2026-09-03 06:13:50 | 44.58385 | 20.85736 | 224° | 15km/h | 19928m | 5.9m/s | -55.3°C | 1.3% | 0hPa | 0V | 00:00:00 | 00:00:00 | 00:00:00 | |
| OM5KV | 2026-09-03 06:13:43 | 44.58404 | 20.85764 | 265° | 16km/h | 19887m | 7.0m/s | -55.0°C | 1.2% | 0hPa | 0V | 00:00:00 | 00:00:00 | 00:00:00 | |
| OM5KV | 2026-09-03 06:13:34 | 44.58423 | 20.85802 | 223° | 13km/h | 19833m | 5.4m/s | -54.7°C | 1.1% | 0hPa | 0V | 00:00:00 | 00:00:00 | 00:00:00 | |
| OM5KV | 2026-09-03 06:13:27 | 44.58432 | 20.85847 | 223° | 18km/h | 19792m | 6.7m/s | -54.7°C | 1.1% | 0hPa | 0V | 00:00:00 | 00:00:00 | 00:00:00 | |
| OM5KV | 2026-09-03 06:13:21 | 44.58464 | 20.85868 | 212° | 20km/h | 19755m | 6.6m/s | -54.8°C | 1.1% | 0hPa | 0V | 00:00:00 | 00:00:00 | 00:00:00 | |
| OM5KV | 2026-09-03 06:13:12 | 44.58512 | 20.85892 | 185° | 26km/h | 19702m | 5.9m/s | -55.2°C | 1.3% | 0hPa | 0V | 00:00:00 | 00:00:00 | 00:00:00 | |
| OM5KV | 2026-09-03 06:13:03 | 44.58562 | 20.85886 | 165° | 31km/h | 19648m | 5.9m/s | -55.1°C | 1.3% | 0hPa | 0V | 00:00:00 | 00:00:00 | 00:00:00 | |
| OM5KV | 2026-09-03 06:13:01 | 44.58577 | 20.85880 | 165° | 29km/h | 19636m | 6.8m/s | -55.1°C | 1.3% | 0hPa | 0V | 00:00:00 | 00:00:00 | 00:00:00 | |
| OM5KV | 2026-09-03 06:12:58 | 44.58596 | 20.85873 | 166° | 24km/h | 19619m | 6.0m/s | -55.0°C | 1.2% | 0hPa | 0V | 00:00:00 | 00:00:00 | 00:00:00 | |
| LZ4TU-5 | 2026-09-03 06:12:53 | 44.58620 | 20.85856 | 156° | 22km/h | 19589m | 6.1m/s | -55.1°C | 71.0% | 0hPa | 0V | 00:00:00 | 00:00:00 | 00:00:00 | |
| OM5KV | 2026-09-03 06:12:51 | 44.58630 | 20.85851 | 167° | 20km/h | 19576m | 7.0m/s | -55.0°C | 1.2% | 0hPa | 0V | 00:00:00 | 00:00:00 | 00:00:00 | |
| OM5KV | 2026-09-03 06:12:48 | 44.58645 | 20.85847 | 165° | 24km/h | 19558m | 6.5m/s | -55.1°C | 1.2% | 0hPa | 0V | 00:00:00 | 00:00:00 | 00:00:00 | |
| OM5KV | 2026-09-03 06:12:46 | 44.58657 | 20.85838 | 142° | 27km/h | 19545m | 6.8m/s | -55.2°C | 1.2% | 0hPa | 0V | 00:00:00 | 00:00:00 | 00:00:00 | |
| OM5KV | 2026-09-03 06:12:37 | 44.58703 | 20.85779 | 171° | 24km/h | 19492m | 4.7m/s | -55.4°C | 1.3% | 0hPa | 0V | 00:00:00 | 00:00:00 | 00:00:00 | |
| OM5KV | 2026-09-03 06:12:31 | 44.58724 | 20.85742 | 118° | 31km/h | 19457m | 5.2m/s | -55.5°C | 1.4% | 0hPa | 0V | 00:00:00 | 00:00:00 | 00:00:00 | |
| OM5KV | 2026-09-03 06:12:28 | 44.58732 | 20.85714 | 104° | 26km/h | 19440m | 5.7m/s | -55.5°C | 1.4% | 0hPa | 0V | 00:00:00 | 00:00:00 | 00:00:00 | |
| OM5KV | 2026-09-03 06:12:14 | 44.58765 | 20.85598 | 118° | 29km/h | 19362m | 6.2m/s | -55.4°C | 1.4% | 0hPa | 0V | 00:00:00 | 00:00:00 | 00:00:00 | |
| OM5KV | 2026-09-03 06:12:10 | 44.58771 | 20.85578 | 65° | 7km/h | 19337m | 6.0m/s | -55.3°C | 1.4% | 0hPa | 0V | 00:00:00 | 00:00:00 | 00:00:00 | |
| LZ4TU-5 | 2026-09-03 06:12:06 | 44.58771 | 20.85563 | 96° | 22km/h | 19314m | 6.9m/s | -55.2°C | 1.4% | 0hPa | 0V | 00:00:00 | 00:00:00 | 00:00:00 | |
| OM5KV | 2026-09-03 06:12:02 | 44.58781 | 20.85533 | 138° | 24km/h | 19291m | 5.9m/s | -55.1°C | 1.4% | 0hPa | 0V | 00:00:00 | 00:00:00 | 00:00:00 | |
| LZ4TU-5 | 2026-09-03 06:12:01 | 44.58785 | 20.85527 | 138° | 22km/h | 19284m | 6.7m/s | -55.1°C | 1.4% | 0hPa | 0V | 00:00:00 | 00:00:00 | 00:00:00 | |
| OM5KV | 2026-09-03 06:11:51 | 44.58813 | 20.85466 | 126° | 24km/h | 19227m | 5.4m/s | -54.8°C | 1.2% | 0hPa | 0V | 00:00:00 | 00:00:00 | 00:00:00 | |
| OM5KV | 2026-09-03 06:11:50 | 44.58817 | 20.85458 | 122° | 26km/h | 19221m | 6.5m/s | -54.7°C | 1.1% | 0hPa | 0V | 00:00:00 | 00:00:00 | 00:00:00 | |
| OM5KV | 2026-09-03 06:11:46 | 44.58832 | 20.85425 | 127° | 31km/h | 19200m | 4.2m/s | -54.6°C | 1.1% | 0hPa | 0V | 00:00:00 | 00:00:00 | 00:00:00 | |
| OM5KV | 2026-09-03 06:11:40 | 44.58845 | 20.85362 | 104° | 22km/h | 19165m | 6.4m/s | -54.5°C | 1.0% | 0hPa | 0V | 00:00:00 | 00:00:00 | 00:00:00 | |
| OM5KV | 2026-09-03 06:11:35 | 44.58860 | 20.85339 | 133° | 29km/h | 19136m | 5.6m/s | -54.6°C | 1.0% | 0hPa | 0V | 00:00:00 | 00:00:00 | 00:00:00 | |
| OM5KV | 2026-09-03 06:11:34 | 44.58864 | 20.85329 | 117° | 35km/h | 19129m | 7.1m/s | -54.5°C | 1.0% | 0hPa | 0V | 00:00:00 | 00:00:00 | 00:00:00 | |
| OM5KV | 2026-09-03 06:11:31 | 44.58872 | 20.85284 | 103° | 44km/h | 19112m | 5.7m/s | -54.3°C | 0.9% | 0hPa | 0V | 00:00:00 | 00:00:00 | 00:00:00 | |
| OM5KV | 2026-09-03 06:11:28 | 44.58879 | 20.85250 | 115° | 22km/h | 19096m | 6.4m/s | -54.4°C | 0.9% | 0hPa | 0V | 00:00:00 | 00:00:00 | 00:00:00 | |
| OM5KV | 2026-09-03 06:11:26 | 44.58884 | 20.85239 | 135° | 20km/h | 19086m | 4.1m/s | -54.7°C | 1.0% | 0hPa | 0V | 00:00:00 | 00:00:00 | 00:00:00 | |
| OM5KV | 2026-09-03 06:11:22 | 44.58911 | 20.85209 | 132° | 42km/h | 19062m | 7.2m/s | -55.1°C | 1.1% | 0hPa | 0V | 00:00:00 | 00:00:00 | 00:00:00 | |
| OM5KV | 2026-09-03 06:11:16 | 44.58937 | 20.85131 | 110° | 31km/h | 19029m | 5.6m/s | -55.2°C | 1.1% | 0hPa | 0V | 00:00:00 | 00:00:00 | 00:00:00 | |
| OM5KV | 2026-09-03 06:11:14 | 44.58944 | 20.85112 | 130° | 33km/h | 19016m | 6.2m/s | -55.4°C | 1.1% | 0hPa | 0V | 00:00:00 | 00:00:00 | 00:00:00 | |
| OM5KV | 2026-09-03 06:11:09 | 44.58969 | 20.85062 | 110° | 38km/h | 18988m | 7.0m/s | -55.8°C | 1.2% | 0hPa | 0V | 00:00:00 | 00:00:00 | 00:00:00 | |
| OM5KV | 2026-09-03 06:11:08 | 44.58972 | 20.85048 | 104° | 40km/h | 18984m | 4.6m/s | -55.8°C | 1.2% | 0hPa | 0V | 00:00:00 | 00:00:00 | 00:00:00 | |
| LZ4TU-5 | 2026-09-03 06:11:05 | 44.58974 | 20.85006 | 94° | 38km/h | 18966m | 5.7m/s | -55.9°C | 1.3% | 0hPa | 0V | 00:00:00 | 00:00:00 | 00:00:00 | |
| LZ4TU-5 | 2026-09-03 06:11:00 | 44.58997 | 20.84940 | 128° | 49km/h | 18936m | 5.7m/s | -55.9°C | 1.3% | 0hPa | 0V | 00:00:00 | 00:00:00 | 00:00:00 | |
| OM5KV | 2026-09-03 06:10:59 | 44.59005 | 20.84927 | 128° | 46km/h | 18931m | 5.4m/s | -55.9°C | 1.3% | 0hPa | 0V | 00:00:00 | 00:00:00 | 00:00:00 | |
| OM5KV | 2026-09-03 06:10:53 | 44.59016 | 20.84834 | 96° | 46km/h | 18896m | 5.4m/s | -56.0°C | 1.4% | 0hPa | 0V | 00:00:00 | 00:00:00 | 00:00:00 | |
| OM5KV | 2026-09-03 06:10:43 | 44.59052 | 20.84671 | 94° | 46km/h | 18835m | 5.6m/s | -55.9°C | 1.4% | 0hPa | 0V | 00:00:00 | 00:00:00 | 00:00:00 | |
| OM5KV | 2026-09-03 06:10:42 | 44.59052 | 20.84671 | 94° | 46km/h | 18835m | 5.6m/s | -55.9°C | 1.4% | 0hPa | 0V | 00:00:00 | 00:00:00 | 00:00:00 | |
| OM5KV | 2026-09-03 06:10:38 | 44.59057 | 20.84612 | 100° | 40km/h | 18813m | 6.8m/s | -55.8°C | 1.4% | 0hPa | 0V | 00:00:00 | 00:00:00 | 00:00:00 | |
| OM5KV | 2026-09-03 06:10:32 | 44.59069 | 20.84536 | 100° | 31km/h | 18780m | 6.1m/s | -55.8°C | 1.4% | 0hPa | 0V | 00:00:00 | 00:00:00 | 00:00:00 | |
| OM5KV | 2026-09-03 06:10:22 | 44.59074 | 20.84414 | 99° | 26km/h | 18725m | 5.5m/s | -56.0°C | 1.5% | 0hPa | 0V | 00:00:00 | 00:00:00 | 00:00:00 | |
| OM5KV | 2026-09-03 06:10:21 | 44.59075 | 20.84405 | 94° | 26km/h | 18718m | 6.5m/s | -56.0°C | 1.4% | 0hPa | 0V | 00:00:00 | 00:00:00 | 00:00:00 | |
| OM5KV | 2026-09-03 06:10:16 | 44.59066 | 20.84361 | 62° | 27km/h | 18690m | 6.3m/s | -55.9°C | 1.4% | 0hPa | 0V | 00:00:00 | 00:00:00 | 00:00:00 | |
| OM5KV | 2026-09-03 06:10:08 | 44.59065 | 20.84292 | 110° | 18km/h | 18644m | 5.7m/s | -55.6°C | 1.3% | 0hPa | 0V | 00:00:00 | 00:00:00 | 00:00:00 | |
| LZ4TU-5 | 2026-09-03 06:10:03 | 44.59062 | 20.84257 | 78° | 33km/h | 18614m | 7.2m/s | -55.3°C | 1.2% | 0hPa | 0V | 00:00:00 | 00:00:00 | 00:00:00 | |
| OM5KV | 2026-09-03 06:10:02 | 44.59061 | 20.84245 | 86° | 35km/h | 18609m | 5.1m/s | -55.2°C | 1.2% | 0hPa | 0V | 00:00:00 | 00:00:00 | 00:00:00 | |
| OM5KV | 2026-09-03 06:10:01 | 44.59061 | 20.84233 | 92° | 33km/h | 18603m | 5.4m/s | -55.2°C | 1.2% | 0hPa | 0V | 00:00:00 | 00:00:00 | 00:00:00 | |
| LZ4TU-5 | 2026-09-03 06:09:59 | 44.59062 | 20.84216 | 116° | 16km/h | 18590m | 5.8m/s | -55.2°C | 1.2% | 0hPa | 0V | 00:00:00 | 00:00:00 | 00:00:00 | |
| OM5KV | 2026-09-03 06:09:55 | 44.59074 | 20.84200 | 143° | 20km/h | 18567m | 6.1m/s | -55.0°C | 1.1% | 0hPa | 0V | 00:00:00 | 00:00:00 | 00:00:00 | |
| LZ4TU-5 | 2026-09-03 06:09:54 | 44.59077 | 20.84196 | 138° | 16km/h | 18560m | 6.0m/s | -55.0°C | 1.1% | 0hPa | 0V | 00:00:00 | 00:00:00 | 00:00:00 | |
| OM5KV | 2026-09-03 06:09:50 | 44.59072 | 20.84172 | 61° | 31km/h | 18538m | 6.7m/s | -54.9°C | 1.1% | 0hPa | 0V | 00:00:00 | 00:00:00 | 00:00:00 | |
| LZ4TU-5 | 2026-09-03 06:09:49 | 44.59069 | 20.84163 | 78° | 27km/h | 18532m | 5.9m/s | -54.9°C | 1.2% | 0hPa | 0V | 00:00:00 | 00:00:00 | 00:00:00 | |
| OM5KV | 2026-09-03 06:09:46 | 44.59077 | 20.84144 | 159° | 27km/h | 18511m | 6.9m/s | -55.2°C | 1.2% | 0hPa | 0V | 00:00:00 | 00:00:00 | 00:00:00 | |
| OM5KV | 2026-09-03 06:09:40 | 44.59106 | 20.84103 | 109° | 22km/h | 18475m | 4.8m/s | -55.3°C | 1.2% | 0hPa | 0V | 00:00:00 | 00:00:00 | 00:00:00 | |
| OM5KV | 2026-09-03 06:09:34 | 44.59116 | 20.84073 | 155° | 26km/h | 18444m | 5.3m/s | -55.6°C | 1.3% | 0hPa | 0V | 00:00:00 | 00:00:00 | 00:00:00 | |
| OM5KV | 2026-09-03 06:09:30 | 44.59140 | 20.84037 | 124° | 42km/h | 18422m | 5.3m/s | -55.6°C | 1.3% | 0hPa | 0V | 00:00:00 | 00:00:00 | 00:00:00 | |
| OM5KV | 2026-09-03 06:09:29 | 44.59146 | 20.84025 | 126° | 40km/h | 18416m | 5.2m/s | -55.7°C | 1.4% | 0hPa | 0V | 00:00:00 | 00:00:00 | 00:00:00 | |
| OM5KV | 2026-09-03 06:09:22 | 44.59179 | 20.83956 | 127° | 29km/h | 18377m | 6.2m/s | -55.7°C | 1.3% | 0hPa | 0V | 00:00:00 | 00:00:00 | 00:00:00 | |
| OM5KV | 2026-09-03 06:09:19 | 44.59192 | 20.83922 | 116° | 42km/h | 18359m | 6.2m/s | -55.7°C | 1.3% | 0hPa | 0V | 00:00:00 | 00:00:00 | 00:00:00 | |
| OM5KV | 2026-09-03 06:09:13 | 44.59219 | 20.83845 | 135° | 35km/h | 18324m | 4.9m/s | -55.8°C | 1.4% | 0hPa | 0V | 00:00:00 | 00:00:00 | 00:00:00 | |
| OM5KV | 2026-09-03 06:09:07 | 44.59246 | 20.83770 | 111° | 49km/h | 18290m | 4.8m/s | -55.9°C | 1.4% | 0hPa | 0V | 00:00:00 | 00:00:00 | 00:00:00 | |
| OM5KV | 2026-09-03 06:09:01 | 44.59271 | 20.83678 | 127° | 46km/h | 18254m | 4.8m/s | -56.0°C | 1.5% | 0hPa | 0V | 00:00:00 | 00:00:00 | 00:00:00 | |
| OM5KV | 2026-09-03 06:08:57 | 44.59296 | 20.83612 | 111° | 57km/h | 18232m | 5.0m/s | -55.9°C | 1.5% | 0hPa | 0V | 00:00:00 | 00:00:00 | 00:00:00 | |
| OM5KV | 2026-09-03 06:08:56 | 44.59301 | 20.83594 | 110° | 53km/h | 18227m | 5.4m/s | -55.9°C | 1.5% | 0hPa | 0V | 00:00:00 | 00:00:00 | 00:00:00 | |
| LZ4TU-5 | 2026-09-03 06:08:52 | 44.59310 | 20.83526 | 96° | 49km/h | 18204m | 4.8m/s | -55.9°C | 1.6% | 0hPa | 0V | 00:00:00 | 00:00:00 | 00:00:00 | |
| LZ4TU-5 | 2026-09-03 06:08:47 | 44.59330 | 20.83433 | 112° | 66km/h | 18176m | 5.6m/s | -55.9°C | 1.6% | 0hPa | 0V | 00:00:00 | 00:00:00 | 00:00:00 | |
| OM5KV | 2026-09-03 06:08:44 | 44.59348 | 20.83369 | 110° | 62km/h | 18160m | 5.4m/s | -55.8°C | 1.7% | 0hPa | 0V | 00:00:00 | 00:00:00 | 00:00:00 | |
| OM5KV | 2026-09-03 06:08:34 | 44.59369 | 20.83165 | 102° | 53km/h | 18105m | 5.5m/s | -55.7°C | 1.7% | 0hPa | 0V | 00:00:00 | 00:00:00 | 00:00:00 | |
| OM5KV | 2026-09-03 06:08:33 | 44.59371 | 20.83146 | 101° | 55km/h | 18099m | 6.7m/s | -55.6°C | 1.6% | 0hPa | 0V | 00:00:00 | 00:00:00 | 00:00:00 | |
| OM5KV | 2026-09-03 06:08:27 | 44.59386 | 20.83033 | 104° | 55km/h | 18066m | 6.3m/s | -55.4°C | 1.5% | 0hPa | 0V | 00:00:00 | 00:00:00 | 00:00:00 | |
| OM5KV | 2026-09-03 06:08:21 | 44.59403 | 20.82919 | 95° | 55km/h | 18034m | 6.6m/s | -55.3°C | 1.5% | 0hPa | 0V | 00:00:00 | 00:00:00 | 00:00:00 | |
| OM5KV | 2026-09-03 06:08:13 | 44.59415 | 20.82767 | 105° | 42km/h | 17989m | 5.8m/s | -55.2°C | 1.4% | 0hPa | 0V | 00:00:00 | 00:00:00 | 00:00:00 | |
| OM5KV | 2026-09-03 06:08:09 | 44.59422 | 20.82703 | 93° | 47km/h | 17966m | 6.7m/s | -55.2°C | 1.5% | 0hPa | 0V | 00:00:00 | 00:00:00 | 00:00:00 | |
| OM5KV | 2026-09-03 06:08:08 | 44.59422 | 20.82686 | 92° | 46km/h | 17960m | 5.9m/s | -55.3°C | 1.5% | 0hPa | 0V | 00:00:00 | 00:00:00 | 00:00:00 | |
| OM5KV | 2026-09-03 06:08:04 | 44.59425 | 20.82617 | 100° | 47km/h | 17937m | 6.8m/s | -55.4°C | 1.4% | 0hPa | 0V | 00:00:00 | 00:00:00 | 00:00:00 | |
| OM5KV | 2026-09-03 06:08:02 | 44.59430 | 20.82588 | 104° | 40km/h | 17927m | 4.5m/s | -55.5°C | 1.5% | 0hPa | 0V | 00:00:00 | 00:00:00 | 00:00:00 | |
| OM5KV | 2026-09-03 06:07:59 | 44.59437 | 20.82522 | 95° | 49km/h | 17905m | 5.9m/s | -55.4°C | 1.5% | 0hPa | 0V | 00:00:00 | 00:00:00 | 00:00:00 | |
| OM5KV | 2026-09-03 06:07:52 | 44.59432 | 20.82429 | 77° | 35km/h | 17870m | 5.6m/s | -55.8°C | 1.6% | 0hPa | 0V | 00:00:00 | 00:00:00 | 00:00:00 | |
| OM5KV | 2026-09-03 06:07:47 | 44.59426 | 20.82362 | 90° | 38km/h | 17841m | 5.5m/s | -56.0°C | 1.7% | 0hPa | 0V | 00:00:00 | 00:00:00 | 00:00:00 | |
| OM5KV | 2026-09-03 06:07:41 | 44.59426 | 20.82273 | 100° | 38km/h | 17807m | 5.3m/s | -56.1°C | 1.8% | 0hPa | 0V | 00:00:00 | 00:00:00 | 00:00:00 | |
| OM5KV | 2026-09-03 06:07:35 | 44.59432 | 20.82184 | 95° | 42km/h | 17773m | 6.2m/s | -56.0°C | 1.8% | 0hPa | 0V | 00:00:00 | 00:00:00 | 00:00:00 | |
| OM5KV | 2026-09-03 06:07:33 | 44.59435 | 20.82153 | 100° | 44km/h | 17761m | 5.2m/s | -56.0°C | 1.8% | 0hPa | 0V | 00:00:00 | 00:00:00 | 00:00:00 | |
| OM5KV | 2026-09-03 06:07:31 | 44.59438 | 20.82124 | 97° | 38km/h | 17750m | 4.9m/s | -56.0°C | 1.8% | 0hPa | 0V | 00:00:00 | 00:00:00 | 00:00:00 | |
| OM5KV | 2026-09-03 06:07:28 | 44.59443 | 20.82081 | 102° | 40km/h | 17734m | 5.2m/s | -55.9°C | 1.8% | 0hPa | 0V | 00:00:00 | 00:00:00 | 00:00:00 | |
| OM5KV | 2026-09-03 06:07:22 | 44.59447 | 20.82002 | 84° | 40km/h | 17698m | 6.6m/s | -55.9°C | 1.8% | 0hPa | 0V | 00:00:00 | 00:00:00 | 00:00:00 | |
| OM5KV | 2026-09-03 06:07:18 | 44.59441 | 20.81946 | 87° | 38km/h | 17675m | 5.5m/s | -55.7°C | 1.8% | 0hPa | 0V | 00:00:00 | 00:00:00 | 00:00:00 | |
| OM5KV | 2026-09-03 06:07:16 | 44.59439 | 20.81922 | 83° | 31km/h | 17664m | 4.8m/s | -55.7°C | 1.8% | 0hPa | 0V | 00:00:00 | 00:00:00 | 00:00:00 | |
| OM5KV | 2026-09-03 06:07:12 | 44.59434 | 20.81869 | 84° | 40km/h | 17639m | 6.8m/s | -55.4°C | 1.7% | 0hPa | 0V | 00:00:00 | 00:00:00 | 00:00:00 | |
| OM5KV | 2026-09-03 06:07:05 | 44.59442 | 20.81786 | 92° | 26km/h | 17600m | 5.4m/s | -55.4°C | 1.7% | 0hPa | 0V | 00:00:00 | 00:00:00 | 00:00:00 | |
| OM5KV | 2026-09-03 06:06:55 | 44.59444 | 20.81671 | 87° | 31km/h | 17541m | 5.6m/s | -55.2°C | 1.7% | 0hPa | 0V | 00:00:00 | 00:00:00 | 00:00:00 | |
| OM5KV | 2026-09-03 06:06:52 | 44.59442 | 20.81635 | 89° | 38km/h | 17524m | 5.5m/s | -55.1°C | 1.6% | 0hPa | 0V | 00:00:00 | 00:00:00 | 00:00:00 | |
| OM5KV | 2026-09-03 06:06:47 | 44.59441 | 20.81569 | 97° | 37km/h | 17495m | 6.6m/s | -55.0°C | 1.6% | 0hPa | 0V | 00:00:00 | 00:00:00 | 00:00:00 | |
| OM5KV | 2026-09-03 06:06:41 | 44.59445 | 20.81495 | 92° | 33km/h | 17458m | 6.5m/s | -55.1°C | 1.5% | 0hPa | 0V | 00:00:00 | 00:00:00 | 00:00:00 | |
| LZ4TU-5 | 2026-09-03 06:06:17 | 44.59490 | 20.81202 | 92° | 49km/h | 17321m | 5.9m/s | -56.0°C | 1.7% | 0hPa | 0V | 00:00:00 | 00:00:00 | 00:00:00 | |
| LZ4TU-5 | 2026-09-03 06:06:12 | 44.59484 | 20.81110 | 94° | 44km/h | 17293m | 6.9m/s | -55.9°C | 1.7% | 0hPa | 0V | 00:00:00 | 00:00:00 | 00:00:00 | |
| LZ4TU-5 | 2026-09-03 05:51:49 | 44.63355 | 20.64884 | 122° | 82km/h | 12705m | 3.8m/s | -52.0°C | 7.5% | 0hPa | 0V | 00:00:00 | 00:00:00 | 00:00:00 | |
| LZ4TU-5 | 2026-09-03 05:51:45 | 44.63395 | 20.64779 | 119° | 80km/h | 12687m | 4.6m/s | -52.0°C | 7.6% | 0hPa | 0V | 00:00:00 | 00:00:00 | 00:00:00 | |
| LZ4TU-5 | 2026-09-03 05:50:50 | 44.63808 | 20.63410 | 122° | 62km/h | 12410m | 5.3m/s | -52.3°C | 8.3% | 0hPa | 0V | 00:00:00 | 00:00:00 | 00:00:00 | |
| LZ4TU-5 | 2026-09-03 05:50:46 | 44.63829 | 20.63330 | 107° | 69km/h | 12387m | 7.1m/s | -52.5°C | 8.4% | 0hPa | 0V | 00:00:00 | 00:00:00 | 00:00:00 | |
| LZ4TU-5 | 2026-09-03 05:49:12 | 44.64668 | 20.61632 | 125° | 68km/h | 11872m | 6.2m/s | -51.0°C | 10.9% | 0hPa | 0V | 00:00:00 | 00:00:00 | 00:00:00 | |
| LZ4TU-5 | 2026-09-03 05:48:17 | 44.65355 | 20.60617 | 148° | 71km/h | 11581m | 6.7m/s | -51.6°C | 13.7% | 0hPa | 0V | 00:00:00 | 00:00:00 | 00:00:00 | |
| LZ4TU-5 | 2026-09-03 05:48:13 | 44.65413 | 20.60543 | 133° | 75km/h | 11557m | 5.9m/s | -51.6°C | 13.9% | 0hPa | 0V | 00:00:00 | 00:00:00 | 00:00:00 | |
| LZ4TU-5 | 2026-09-03 05:47:13 | 44.66282 | 20.59389 | 138° | 89km/h | 11173m | 5.9m/s | -51.1°C | 16.5% | 0hPa | 0V | 00:00:00 | 00:00:00 | 00:00:00 | |
| LZ4TU-5 | 2026-09-03 05:47:09 | 44.66351 | 20.59316 | 149° | 80km/h | 11146m | 7.2m/s | -51.1°C | 16.7% | 0hPa | 0V | 00:00:00 | 00:00:00 | 00:00:00 | |
| LZ4TU-5 | 2026-09-03 05:46:05 | 44.67267 | 20.58212 | 139° | 69km/h | 10800m | 4.9m/s | -50.0°C | 19.1% | 0hPa | 0V | 00:00:00 | 00:00:00 | 00:00:00 | |
| LZ4TU-5 | 2026-09-03 05:42:43 | 44.69210 | 20.55235 | 120° | 40km/h | 9719m | 6.3m/s | -45.5°C | 69.2% | 0hPa | 0V | 00:00:00 | 00:00:00 | 00:00:00 | |
| LZ4TU-5 | 2026-09-03 05:42:38 | 44.69248 | 20.55150 | 128° | 75km/h | 9693m | 6.3m/s | -45.3°C | 69.4% | 0hPa | 0V | 00:00:00 | 00:00:00 | 00:00:00 | |
| LZ4TU-5 | 2026-09-03 05:41:34 | 44.69803 | 20.54103 | 140° | 47km/h | 9319m | 3.1m/s | -41.9°C | 61.2% | 0hPa | 0V | 00:00:00 | 00:00:00 | 00:00:00 | |
| LZ4TU-5 | 2026-09-03 05:41:30 | 44.69829 | 20.54040 | 111° | 64km/h | 9300m | 3.7m/s | -41.7°C | 60.4% | 0hPa | 0V | 00:00:00 | 00:00:00 | 00:00:00 | |
| LZ4TU-5 | 2026-09-03 05:40:03 | 44.70402 | 20.52553 | 105° | 44km/h | 8844m | 5.9m/s | -37.5°C | 50.3% | 0hPa | 0V | 00:00:00 | 00:00:00 | 00:00:00 | |
| LZ4TU-5 | 2026-09-03 05:39:58 | 44.70423 | 20.52489 | 115° | 62km/h | 8808m | 6.5m/s | -37.3°C | 49.3% | 0hPa | 0V | 00:00:00 | 00:00:00 | 00:00:00 | |
| LZ4TU-5 | 2026-09-03 05:38:35 | 44.71014 | 20.51227 | 131° | 20km/h | 8348m | 7.1m/s | -33.5°C | 56.4% | 0hPa | 0V | 00:00:00 | 00:00:00 | 00:00:00 | |
| LZ4TU-5 | 2026-09-03 05:37:11 | 44.71451 | 20.50044 | 127° | 35km/h | 7868m | 3.4m/s | -29.8°C | 67.9% | 0hPa | 0V | 00:00:00 | 00:00:00 | 00:00:00 | |
| LZ4TU-5 | 2026-09-03 05:37:06 | 44.71472 | 20.49967 | 117° | 46km/h | 7843m | 5.0m/s | -29.6°C | 67.2% | 0hPa | 0V | 00:00:00 | 00:00:00 | 00:00:00 | |
| LZ4TU-5 | 2026-09-03 05:35:52 | 44.71737 | 20.48980 | 101° | 38km/h | 7422m | 5.4m/s | -25.7°C | 56.8% | 0hPa | 0V | 00:00:00 | 00:00:00 | 00:00:00 | |
| LZ4TU-5 | 2026-09-03 05:35:48 | 44.71757 | 20.48947 | 146° | 31km/h | 7395m | 3.8m/s | -25.6°C | 56.2% | 0hPa | 0V | 00:00:00 | 00:00:00 | 00:00:00 | |
| LZ4TU-5 | 2026-09-03 05:34:33 | 44.71957 | 20.48024 | 137° | 27km/h | 6989m | 7.3m/s | -22.3°C | 50.8% | 0hPa | 0V | 00:00:00 | 00:00:00 | 00:00:00 | |
| LZ4TU-5 | 2026-09-03 05:34:28 | 44.71976 | 20.47989 | 106° | 47km/h | 6959m | 8.4m/s | -22.1°C | 50.7% | 0hPa | 0V | 00:00:00 | 00:00:00 | 00:00:00 | |
| LZ4TU-5 | 2026-09-03 05:33:15 | 44.72216 | 20.47167 | 121° | 27km/h | 6528m | 6.8m/s | -18.6°C | 51.1% | 0hPa | 0V | 00:00:00 | 00:00:00 | 00:00:00 | |
| LZ4TU-5 | 2026-09-03 05:31:53 | 44.72541 | 20.46280 | 121° | 42km/h | 6057m | 6.6m/s | -15.3°C | 42.9% | 0hPa | 0V | 00:00:00 | 00:00:00 | 00:00:00 | |
| LZ4TU-5 | 2026-09-03 05:31:48 | 44.72559 | 20.46203 | 120° | 51km/h | 6023m | 6.3m/s | -15.2°C | 43.1% | 0hPa | 0V | 00:00:00 | 00:00:00 | 00:00:00 | |
| LZ4TU-5 | 2026-09-03 05:30:35 | 44.72942 | 20.45255 | 131° | 58km/h | 5627m | 4.7m/s | -12.2°C | 32.2% | 0hPa | 0V | 00:00:00 | 00:00:00 | 00:00:00 | |
| LZ4TU-5 | 2026-09-03 05:30:30 | 44.72966 | 20.45196 | 122° | 20km/h | 5601m | 5.9m/s | -12.0°C | 35.2% | 0hPa | 0V | 00:00:00 | 00:00:00 | 00:00:00 | |
| LZ4TU-5 | 2026-09-03 05:30:15 | 44.73028 | 20.45033 | 148° | 49km/h | 5524m | 4.1m/s | -11.7°C | 39.3% | 0hPa | 0V | 00:00:00 | 00:00:00 | 00:00:00 | |
| LZ4TU-5 | 2026-09-03 05:30:09 | 44.73050 | 20.44942 | 75° | 29km/h | 5492m | 4.7m/s | -11.4°C | 38.1% | 0hPa | 0V | 00:00:00 | 00:00:00 | 00:00:00 | |
| LZ4TU-5 | 2026-09-03 05:30:03 | 44.73087 | 20.44886 | 143° | 55km/h | 5457m | 4.5m/s | -11.3°C | 37.5% | 0hPa | 0V | 00:00:00 | 00:00:00 | 00:00:00 | |
| LZ4TU-5 | 2026-09-03 05:29:58 | 44.73116 | 20.44831 | 105° | 33km/h | 5426m | 6.5m/s | -11.1°C | 36.9% | 0hPa | 0V | 00:00:00 | 00:00:00 | 00:00:00 | |
| LZ4TU-5 | 2026-09-03 05:28:43 | 44.73569 | 20.44012 | 142° | 51km/h | 5015m | 5.5m/s | -9.1°C | 20.8% | 0hPa | 0V | 00:00:00 | 00:00:00 | 00:00:00 | |
| LZ4TU-5 | 2026-09-03 05:28:38 | 44.73592 | 20.43964 | 115° | 18km/h | 4982m | 6.4m/s | -8.8°C | 20.6% | 0hPa | 0V | 00:00:00 | 00:00:00 | 00:00:00 | |
| LZ4TU-5 | 2026-09-03 05:26:25 | 44.74267 | 20.42795 | 102° | 18km/h | 4249m | 4.4m/s | -4.6°C | 28.3% | 0hPa | 0V | 00:00:00 | 00:00:00 | 00:00:00 | |
| LZ4TU-5 | 2026-09-03 05:26:21 | 44.74268 | 20.42758 | 87° | 24km/h | 4224m | 4.4m/s | -4.4°C | 28.0% | 0hPa | 0V | 00:00:00 | 00:00:00 | 00:00:00 | |
| LZ4TU-5 | 2026-09-03 05:25:13 | 44.74488 | 20.42395 | 171° | 31km/h | 3842m | 3.9m/s | -2.0°C | 31.1% | 0hPa | 0V | 00:00:00 | 00:00:00 | 00:00:00 | |
| LZ4TU-5 | 2026-09-03 05:25:08 | 44.74510 | 20.42352 | 94° | 27km/h | 3814m | 5.8m/s | -1.8°C | 32.2% | 0hPa | 0V | 00:00:00 | 00:00:00 | 00:00:00 | |
| LZ4TU-5 | 2026-09-03 05:24:08 | 44.74705 | 20.42090 | 68° | 22km/h | 3483m | 5.0m/s | 0.3°C | 47.3% | 0hPa | 0V | 00:00:00 | 00:00:00 | 00:00:00 | |
| LZ4TU-5 | 2026-09-03 05:24:03 | 44.74725 | 20.42057 | 187° | 26km/h | 3457m | 4.5m/s | 0.5°C | 47.1% | 0hPa | 0V | 00:00:00 | 00:00:00 | 00:00:00 | |
| LZ4TU-5 | 2026-09-03 05:23:03 | 44.74920 | 20.41898 | 88° | 18km/h | 3132m | 5.4m/s | 2.8°C | 48.1% | 0hPa | 0V | 00:00:00 | 00:00:00 | 00:00:00 | |
| LZ4TU-5 | 2026-09-03 05:22:58 | 44.74932 | 20.41865 | 168° | 24km/h | 3108m | 6.3m/s | 3.0°C | 49.3% | 0hPa | 0V | 00:00:00 | 00:00:00 | 00:00:00 |